PACV Airport Information

Runway Information
Runway 09 Length 7500 ft width 150 ft
Elevation 36 ft Threshold 0 ft Heading 114
Runway 27 Length 7500 ft Width 150 ft
Elevation 37 ft Threshold 0 ft Heading 294
Runway 16 Length 1899 ft width 30 ft
Elevation 46 ft Threshold 0 ft Heading 181
Runway 34 Length 1899 ft Width 30 ft
Elevation 35 ft Threshold 0 ft Heading 1
Airport Frequencies
Type A/D Name ANCHORAGE Frequency 133.6 MHZ
Type ASOS Name ASOS Frequency 134.8 MHZ
Type CTAF Name CTAF Frequency 123.6 MHZ
Type FSS Name JUNEAU RDO Frequency 122.2 MHZ
Airport Navaids
Type NDB Name Glacier River Frequency 404 KHZ
Airport Weather Information & NOTAM
ADDS - METARS form results

(1104 UTC 08 December 2019)
Data provider http://aviationweather.gov/metar/data/
 
METAR text: PACV 081053Z 11005KT 8SM -RA FEW021 BKN029 OVC043 06/04 A2969 RMK AO2 SLP054 P0003 T00560039
Conditions at: PACV (CORDOVA , AK, US) observed 1053 UTC 08 December 2019
Temperature: 5.6°C (42°F)
Dewpoint: 3.9°C (39°F) [RH = 89%]
Pressure (altimeter): 29.69 inches Hg (1005.5 mb)
[Sea-level pressure: 1005.4 mb]
Winds: from the ESE (110 degrees) at 6 MPH (5 knots; 2.6 m/s)
Visibility: 8 miles (13 km)
Ceiling: 2900 feet AGL
Clouds: few clouds at 2100 feet AGL
broken clouds at 2900 feet AGL
overcast cloud deck at 4300 feet AGL
Weather: -RA  (light rain)

METAR text: PACV 081043Z 13009KT 3SM -RA BR SCT021 BKN028 OVC043 06/04 A2969 RMK AO2 P0003 T00560039
Conditions at: PACV (CORDOVA , AK, US) observed 1043 UTC 08 December 2019
Temperature: 5.6°C (42°F)
Dewpoint: 3.9°C (39°F) [RH = 89%]
Pressure (altimeter): 29.69 inches Hg (1005.5 mb)
Winds: from the SE (130 degrees) at 10 MPH (9 knots; 4.6 m/s)
Visibility: 3 miles ( 5 km)
Ceiling: 2800 feet AGL
Clouds: scattered clouds at 2100 feet AGL
broken clouds at 2800 feet AGL
overcast cloud deck at 4300 feet AGL
Weather: -RA BR  (light rain, mist)

METAR text: PACV 081034Z 12006KT 5SM -RA BR FEW025 BKN033 OVC043 06/04 A2968 RMK AO2 P0002 T00560039
Conditions at: PACV (CORDOVA , AK, US) observed 1034 UTC 08 December 2019
Temperature: 5.6°C (42°F)
Dewpoint: 3.9°C (39°F) [RH = 89%]
Pressure (altimeter): 29.68 inches Hg (1005.2 mb)
Winds: from the ESE (120 degrees) at 7 MPH (6 knots; 3.1 m/s)
Visibility: 5 miles ( 8 km)
Ceiling: 3300 feet AGL
Clouds: few clouds at 2500 feet AGL
broken clouds at 3300 feet AGL
overcast cloud deck at 4300 feet AGL
Weather: -RA BR  (light rain, mist)

METAR text: PACV 081019Z 13007KT 7SM -RA SCT020 BKN027 OVC040 06/04 A2967 RMK AO2 P0001 T00560039
Conditions at: PACV (CORDOVA , AK, US) observed 1019 UTC 08 December 2019
Temperature: 5.6°C (42°F)
Dewpoint: 3.9°C (39°F) [RH = 89%]
Pressure (altimeter): 29.67 inches Hg (1004.8 mb)
Winds: from the SE (130 degrees) at 8 MPH (7 knots; 3.6 m/s)
Visibility: 7 miles (11 km)
Ceiling: 2700 feet AGL
Clouds: scattered clouds at 2000 feet AGL
broken clouds at 2700 feet AGL
overcast cloud deck at 4000 feet AGL
Weather: -RA  (light rain)

Forecast for: PACV (CORDOVA , AK, US)
Text: PACV 080540Z 0806/0906 09015G28KT 6SM -RA OVC035
Forecast period: 0600 to 1000 UTC 08 December 2019
Forecast type: FROM: standard forecast or significant change
Winds: from the E (90 degrees) at 17 MPH (15 knots; 7.7 m/s)
gusting to 32 MPH (28 knots; 14.4 m/s)
Visibility: 6 miles (10 km)
Ceiling: 3500 feet AGL
Clouds: overcast cloud deck at 3500 feet AGL
Weather: -RA  (light rain)
Text: TEMPO 0806/0810 3SM -RA BKN020
Forecast period: 0600 to 1000 UTC 08 December 2019
Forecast type: TEMPORARY: The following changes expected for less than half the time period
Visibility: 3 miles (5 km)
Ceiling: 2000 feet AGL
Clouds: broken clouds at 2000 feet AGL
Weather: -RA  (light rain)
Text: FM081000 10015KT 2SM RA BR BKN010 OVC020
Forecast period: 1000 to 1500 UTC 08 December 2019
Forecast type: FROM: standard forecast or significant change
Winds: from the E (100 degrees) at 17 MPH (15 knots; 7.7 m/s)
Visibility: 2.00 miles (3.22 km)
Ceiling: 1000 feet AGL
Clouds: broken clouds at 1000 feet AGL
overcast cloud deck at 2000 feet AGL
Weather: RA BR  (moderate rain, mist)
Text: FM081500 11005KT 5SM -SHRA BKN020
Forecast period: 1500 to 2000 UTC 08 December 2019
Forecast type: FROM: standard forecast or significant change
Winds: from the ESE (110 degrees) at 6 MPH (5 knots; 2.6 m/s)
Visibility: 5 miles (8 km)
Ceiling: 2000 feet AGL
Clouds: broken clouds at 2000 feet AGL
Weather: -SHRA  (light rain showers)
Text: FM082000 08006KT P6SM VCSH BKN050
Forecast period: 2000 UTC 08 December 2019 to 0400 UTC 09 December 2019
Forecast type: FROM: standard forecast or significant change
Winds: from the E (80 degrees) at 7 MPH (6 knots; 3.1 m/s)
Visibility: 6 or more miles 10+ km)
Ceiling: 5000 feet AGL
Clouds: broken clouds at 5000 feet AGL
Weather: VCSH  (showers in vicinity)
Text: FM090400 08008KT 5SM -RA OVC025
Forecast period: 0400 to 0600 UTC 09 December 2019
Forecast type: FROM: standard forecast or significant change
Winds: from the E (80 degrees) at 9 MPH (8 knots; 4.1 m/s)
Visibility: 5 miles (8 km)
Ceiling: 2500 feet AGL
Clouds: overcast cloud deck at 2500 feet AGL
Weather: -RA  (light rain)